Koushinmaru No.5 — JL6695 — position and weather

sailwx.info

Track history (hours):
 
Tides and Currents Weather Stations Pressure Air Temp Water Temp Dewpoint Dewpoint Depression Visibility Wind Speed Wind Dir Waves Ship Positions

Koushinmaru No.5

Last reported at 2014-Jul-23 17:16 UTC. Time now 2014-Jul-24 15:28 UTC.
Position N 34°37' E 134°54'.

Length 75 m; draft 5 m.

Type: Cargo ship. MMSI: 431301703.

Date/timePositionNaut miles runAvg speedWind from/ knotsBaromVisibWave heightAir tempDewpointWater temp
2014-Jul-23 17:16N 34°37' E 134°54'7 9.4
2014-Jul-23 16:31N 34°37' E 135°03'8 8.7
2014-Jul-23 15:33N 34°28' E 135°04'1110.6
2014-Jul-23 14:33N 34°19' E 134°60'1110.7
2014-Jul-23 13:33N 34°08' E 135°01'  
2014-Jul-17 01:33N 34°51' E 139°47'2310.4
2014-Jul-16 23:23N 35°02' E 140°11'2110.5
2014-Jul-16 21:25N 35°16' E 140°29'1211.6
2014-Jul-16 20:25N 35°25' E 140°38'1011.7
2014-Jul-16 19:31N 35°33' E 140°46'1211.6
2014-Jul-16 18:28N 35°44' E 140°54'1111.9
2014-Jul-16 17:33N 35°54' E 140°56'  
Track history (hours):
 
Tides and Currents Weather Stations Pressure Air Temp Water Temp Dewpoint Dewpoint Depression Visibility Wind Speed Wind Dir Waves Ship Positions

Koushinmaru No.5

Last reported at 2014-Jul-23 17:16 UTC. Time now 2014-Jul-24 15:28 UTC.
Position N 34°37' E 134°54'.

Length 75 m; draft 5 m.

Type: Cargo ship. MMSI: 431301703.

Date/timePositionNaut miles runAvg speedWind from/ knotsBaromVisibWave heightAir tempDewpointWater temp
2014-Jul-23 17:16N 34°37' E 134°54'7 9.4
2014-Jul-23 16:31N 34°37' E 135°03'8 8.7
2014-Jul-23 15:33N 34°28' E 135°04'1110.6
2014-Jul-23 14:33N 34°19' E 134°60'1110.7
2014-Jul-23 13:33N 34°08' E 135°01'  
2014-Jul-17 01:33N 34°51' E 139°47'2310.4
2014-Jul-16 23:23N 35°02' E 140°11'2110.5
2014-Jul-16 21:25N 35°16' E 140°29'1211.6
2014-Jul-16 20:25N 35°25' E 140°38'1011.7
2014-Jul-16 19:31N 35°33' E 140°46'1211.6
2014-Jul-16 18:28N 35°44' E 140°54'1111.9
2014-Jul-16 17:33N 35°54' E 140°56'  

Dump ship's entire track history